sensor_id;sensor_type;location;lat;lon;timestamp;P1;durP1;ratioP1;P2;durP2;ratioP2
4786;SDS011;62338;48.832;9.422;2023-02-21T00:02:16;3.73;;;1.30;;
4786;SDS011;62338;48.832;9.422;2023-02-21T00:04:37;5.03;;;1.60;;
4786;SDS011;62338;48.832;9.422;2023-02-21T00:06:57;6.73;;;2.07;;
4786;SDS011;62338;48.832;9.422;2023-02-21T00:09:17;4.33;;;1.57;;
4786;SDS011;62338;48.832;9.422;2023-02-21T00:11:41;6.50;;;2.13;;
4786;SDS011;62338;48.832;9.422;2023-02-21T00:14:02;4.67;;;1.70;;
4786;SDS011;62338;48.832;9.422;2023-02-21T00:16:22;6.30;;;1.70;;
4786;SDS011;62338;48.832;9.422;2023-02-21T00:18:43;3.20;;;1.67;;
4786;SDS011;62338;48.832;9.422;2023-02-21T00:21:03;4.60;;;1.43;;
4786;SDS011;62338;48.832;9.422;2023-02-21T00:23:24;4.60;;;1.90;;
4786;SDS011;62338;48.832;9.422;2023-02-21T00:25:45;3.87;;;1.57;;
4786;SDS011;62338;48.832;9.422;2023-02-21T00:28:05;6.33;;;1.80;;
4786;SDS011;62338;48.832;9.422;2023-02-21T00:30:25;4.13;;;1.60;;
4786;SDS011;62338;48.832;9.422;2023-02-21T00:32:46;3.40;;;1.97;;
4786;SDS011;62338;48.832;9.422;2023-02-21T00:35:07;6.33;;;1.90;;
4786;SDS011;62338;48.832;9.422;2023-02-21T00:37:29;4.87;;;1.73;;
4786;SDS011;62338;48.832;9.422;2023-02-21T00:39:49;4.97;;;1.50;;
4786;SDS011;62338;48.832;9.422;2023-02-21T00:42:09;4.03;;;1.70;;
4786;SDS011;62338;48.832;9.422;2023-02-21T00:44:29;4.00;;;1.67;;
4786;SDS011;62338;48.832;9.422;2023-02-21T00:46:49;4.37;;;1.73;;
4786;SDS011;62338;48.832;9.422;2023-02-21T00:49:10;4.40;;;1.90;;
4786;SDS011;62338;48.832;9.422;2023-02-21T00:51:30;10.03;;;1.63;;
4786;SDS011;62338;48.832;9.422;2023-02-21T00:53:51;2.97;;;1.90;;
4786;SDS011;62338;48.832;9.422;2023-02-21T00:56:11;4.23;;;1.53;;
4786;SDS011;62338;48.832;9.422;2023-02-21T00:58:32;7.20;;;1.83;;
4786;SDS011;62338;48.832;9.422;2023-02-21T01:00:52;6.10;;;1.80;;
4786;SDS011;62338;48.832;9.422;2023-02-21T01:03:13;7.60;;;2.13;;
4786;SDS011;62338;48.832;9.422;2023-02-21T01:05:34;5.20;;;1.63;;
4786;SDS011;62338;48.832;9.422;2023-02-21T01:07:54;2.93;;;1.27;;
4786;SDS011;62338;48.832;9.422;2023-02-21T01:10:14;7.80;;;1.43;;
4786;SDS011;62338;48.832;9.422;2023-02-21T01:12:35;4.03;;;1.60;;
4786;SDS011;62338;48.832;9.422;2023-02-21T01:14:55;3.57;;;1.50;;
4786;SDS011;62338;48.832;9.422;2023-02-21T01:17:15;3.37;;;1.40;;
4786;SDS011;62338;48.832;9.422;2023-02-21T01:19:36;3.20;;;1.60;;
4786;SDS011;62338;48.832;9.422;2023-02-21T01:21:56;10.30;;;1.83;;
4786;SDS011;62338;48.832;9.422;2023-02-21T01:24:16;7.40;;;2.30;;
4786;SDS011;62338;48.832;9.422;2023-02-21T01:26:37;2.53;;;1.30;;
4786;SDS011;62338;48.832;9.422;2023-02-21T01:28:57;5.60;;;1.73;;
4786;SDS011;62338;48.832;9.422;2023-02-21T01:31:18;4.70;;;1.50;;
4786;SDS011;62338;48.832;9.422;2023-02-21T01:33:39;2.73;;;1.43;;
4786;SDS011;62338;48.832;9.422;2023-02-21T01:36:00;4.63;;;1.57;;
4786;SDS011;62338;48.832;9.422;2023-02-21T01:38:20;5.93;;;1.60;;
4786;SDS011;62338;48.832;9.422;2023-02-21T01:40:40;6.90;;;1.70;;
4786;SDS011;62338;48.832;9.422;2023-02-21T01:43:01;4.10;;;1.43;;
4786;SDS011;62338;48.832;9.422;2023-02-21T01:47:41;3.37;;;1.57;;
4786;SDS011;62338;48.832;9.422;2023-02-21T01:50:03;8.00;;;2.90;;
4786;SDS011;62338;48.832;9.422;2023-02-21T01:52:29;5.17;;;1.70;;
4786;SDS011;62338;48.832;9.422;2023-02-21T01:54:50;6.20;;;1.40;;
4786;SDS011;62338;48.832;9.422;2023-02-21T01:57:13;4.20;;;1.60;;
4786;SDS011;62338;48.832;9.422;2023-02-21T01:59:34;3.00;;;1.30;;
4786;SDS011;62338;48.832;9.422;2023-02-21T02:01:58;6.70;;;1.60;;
4786;SDS011;62338;48.832;9.422;2023-02-21T02:04:22;4.67;;;1.90;;
4786;SDS011;62338;48.832;9.422;2023-02-21T02:06:42;6.23;;;1.70;;
4786;SDS011;62338;48.832;9.422;2023-02-21T02:09:12;5.80;;;1.70;;
4786;SDS011;62338;48.832;9.422;2023-02-21T02:19:24;3.37;;;1.50;;
4786;SDS011;62338;48.832;9.422;2023-02-21T02:22:09;3.70;;;1.70;;
4786;SDS011;62338;48.832;9.422;2023-02-21T02:24:51;5.90;;;1.60;;
4786;SDS011;62338;48.832;9.422;2023-02-21T02:37:04;3.57;;;1.50;;
4786;SDS011;62338;48.832;9.422;2023-02-21T02:41:23;4.00;;;1.70;;
4786;SDS011;62338;48.832;9.422;2023-02-21T02:43:37;4.23;;;1.80;;
4786;SDS011;62338;48.832;9.422;2023-02-21T02:46:26;4.00;;;1.70;;
4786;SDS011;62338;48.832;9.422;2023-02-21T02:48:19;3.40;;;1.50;;
4786;SDS011;62338;48.832;9.422;2023-02-21T02:50:25;4.50;;;1.70;;
4786;SDS011;62338;48.832;9.422;2023-02-21T02:52:29;4.63;;;1.80;;
4786;SDS011;62338;48.832;9.422;2023-02-21T02:54:30;3.60;;;1.40;;
4786;SDS011;62338;48.832;9.422;2023-02-21T02:56:32;6.23;;;1.57;;
4786;SDS011;62338;48.832;9.422;2023-02-21T02:58:41;3.70;;;1.80;;
4786;SDS011;62338;48.832;9.422;2023-02-21T03:01:28;10.63;;;1.80;;
4786;SDS011;62338;48.832;9.422;2023-02-21T03:08:32;7.93;;;1.90;;
4786;SDS011;62338;48.832;9.422;2023-02-21T03:15:23;3.33;;;1.80;;
4786;SDS011;62338;48.832;9.422;2023-02-21T03:17:26;5.37;;;1.90;;
4786;SDS011;62338;48.832;9.422;2023-02-21T03:19:33;3.97;;;1.90;;
4786;SDS011;62338;48.832;9.422;2023-02-21T03:23:50;17.53;;;2.40;;
4786;SDS011;62338;48.832;9.422;2023-02-21T03:25:54;9.20;;;2.17;;
4786;SDS011;62338;48.832;9.422;2023-02-21T03:27:59;6.37;;;1.80;;
4786;SDS011;62338;48.832;9.422;2023-02-21T03:30:02;4.50;;;2.17;;
4786;SDS011;62338;48.832;9.422;2023-02-21T03:32:07;6.70;;;2.30;;
4786;SDS011;62338;48.832;9.422;2023-02-21T03:34:15;4.30;;;1.80;;
4786;SDS011;62338;48.832;9.422;2023-02-21T03:36:17;2.33;;;1.47;;
4786;SDS011;62338;48.832;9.422;2023-02-21T03:38:20;4.60;;;1.23;;
4786;SDS011;62338;48.832;9.422;2023-02-21T03:40:23;3.30;;;1.60;;
4786;SDS011;62338;48.832;9.422;2023-02-21T03:42:27;4.97;;;1.90;;
4786;SDS011;62338;48.832;9.422;2023-02-21T03:44:29;3.77;;;1.60;;
4786;SDS011;62338;48.832;9.422;2023-02-21T03:46:30;3.17;;;1.60;;
4786;SDS011;62338;48.832;9.422;2023-02-21T03:48:32;3.53;;;1.70;;
4786;SDS011;62338;48.832;9.422;2023-02-21T03:50:35;3.57;;;1.70;;
4786;SDS011;62338;48.832;9.422;2023-02-21T03:52:36;4.60;;;1.43;;
4786;SDS011;62338;48.832;9.422;2023-02-21T03:54:38;3.60;;;1.60;;
4786;SDS011;62338;48.832;9.422;2023-02-21T03:56:41;3.07;;;1.60;;
4786;SDS011;62338;48.832;9.422;2023-02-21T03:58:43;3.90;;;1.70;;
4786;SDS011;62338;48.832;9.422;2023-02-21T04:00:44;7.43;;;1.47;;
4786;SDS011;62338;48.832;9.422;2023-02-21T04:02:46;3.43;;;1.80;;
4786;SDS011;62338;48.832;9.422;2023-02-21T04:04:48;4.50;;;1.80;;
4786;SDS011;62338;48.832;9.422;2023-02-21T04:06:50;3.13;;;1.70;;
4786;SDS011;62338;48.832;9.422;2023-02-21T04:08:52;4.83;;;1.40;;
4786;SDS011;62338;48.832;9.422;2023-02-21T04:10:53;5.13;;;1.50;;
4786;SDS011;62338;48.832;9.422;2023-02-21T04:12:55;3.57;;;1.73;;
4786;SDS011;62338;48.832;9.422;2023-02-21T04:14:57;3.47;;;1.70;;
4786;SDS011;62338;48.832;9.422;2023-02-21T04:16:59;4.17;;;1.53;;
4786;SDS011;62338;48.832;9.422;2023-02-21T04:19:01;3.40;;;1.80;;
4786;SDS011;62338;48.832;9.422;2023-02-21T04:21:03;4.87;;;2.00;;
4786;SDS011;62338;48.832;9.422;2023-02-21T04:23:05;5.63;;;1.90;;
4786;SDS011;62338;48.832;9.422;2023-02-21T04:25:07;6.73;;;1.90;;
4786;SDS011;62338;48.832;9.422;2023-02-21T04:27:09;8.67;;;2.00;;
4786;SDS011;62338;48.832;9.422;2023-02-21T04:29:11;7.80;;;2.27;;
4786;SDS011;62338;48.832;9.422;2023-02-21T04:31:13;3.87;;;1.87;;
4786;SDS011;62338;48.832;9.422;2023-02-21T04:33:17;4.27;;;2.03;;
4786;SDS011;62338;48.832;9.422;2023-02-21T04:35:18;4.00;;;1.90;;
4786;SDS011;62338;48.832;9.422;2023-02-21T04:37:21;4.73;;;1.70;;
4786;SDS011;62338;48.832;9.422;2023-02-21T04:39:23;2.90;;;1.53;;
4786;SDS011;62338;48.832;9.422;2023-02-21T04:41:24;4.30;;;1.67;;
4786;SDS011;62338;48.832;9.422;2023-02-21T04:43:26;3.57;;;1.80;;
4786;SDS011;62338;48.832;9.422;2023-02-21T04:45:28;9.20;;;1.90;;
4786;SDS011;62338;48.832;9.422;2023-02-21T04:47:30;2.70;;;1.50;;
4786;SDS011;62338;48.832;9.422;2023-02-21T04:49:32;5.50;;;1.30;;
4786;SDS011;62338;48.832;9.422;2023-02-21T04:51:33;3.27;;;1.53;;
4786;SDS011;62338;48.832;9.422;2023-02-21T04:53:35;5.50;;;2.10;;
4786;SDS011;62338;48.832;9.422;2023-02-21T04:55:37;5.80;;;2.50;;
4786;SDS011;62338;48.832;9.422;2023-02-21T04:57:39;3.23;;;1.60;;
4786;SDS011;62338;48.832;9.422;2023-02-21T04:59:41;4.07;;;1.80;;
4786;SDS011;62338;48.832;9.422;2023-02-21T05:01:43;3.37;;;2.17;;
4786;SDS011;62338;48.832;9.422;2023-02-21T05:03:45;4.50;;;1.57;;
4786;SDS011;62338;48.832;9.422;2023-02-21T05:05:47;4.73;;;1.70;;
4786;SDS011;62338;48.832;9.422;2023-02-21T05:07:49;6.30;;;2.13;;
4786;SDS011;62338;48.832;9.422;2023-02-21T05:09:51;4.17;;;2.00;;
4786;SDS011;62338;48.832;9.422;2023-02-21T05:11:53;5.97;;;2.10;;
4786;SDS011;62338;48.832;9.422;2023-02-21T05:13:54;4.40;;;1.57;;
4786;SDS011;62338;48.832;9.422;2023-02-21T05:15:56;4.80;;;1.90;;
4786;SDS011;62338;48.832;9.422;2023-02-21T05:17:58;5.27;;;1.73;;
4786;SDS011;62338;48.832;9.422;2023-02-21T05:20:00;4.20;;;1.60;;
4786;SDS011;62338;48.832;9.422;2023-02-21T05:22:02;5.83;;;1.43;;
4786;SDS011;62338;48.832;9.422;2023-02-21T05:24:07;2.43;;;1.33;;
4786;SDS011;62338;48.832;9.422;2023-02-21T05:26:10;3.40;;;1.93;;
4786;SDS011;62338;48.832;9.422;2023-02-21T05:28:13;3.70;;;1.53;;
4786;SDS011;62338;48.832;9.422;2023-02-21T05:30:16;4.37;;;1.53;;
4786;SDS011;62338;48.832;9.422;2023-02-21T05:32:19;5.83;;;1.83;;
4786;SDS011;62338;48.832;9.422;2023-02-21T05:34:21;4.37;;;1.97;;
4786;SDS011;62338;48.832;9.422;2023-02-21T05:36:23;4.37;;;1.63;;
4786;SDS011;62338;48.832;9.422;2023-02-21T05:38:26;6.70;;;1.90;;
4786;SDS011;62338;48.832;9.422;2023-02-21T05:40:28;3.93;;;1.60;;
4786;SDS011;62338;48.832;9.422;2023-02-21T05:42:30;6.37;;;1.80;;
4786;SDS011;62338;48.832;9.422;2023-02-21T05:44:32;6.87;;;1.97;;
4786;SDS011;62338;48.832;9.422;2023-02-21T05:46:34;3.03;;;1.40;;
4786;SDS011;62338;48.832;9.422;2023-02-21T05:48:36;4.73;;;1.70;;
4786;SDS011;62338;48.832;9.422;2023-02-21T05:50:38;2.80;;;1.30;;
4786;SDS011;62338;48.832;9.422;2023-02-21T05:52:39;3.50;;;1.43;;
4786;SDS011;62338;48.832;9.422;2023-02-21T05:54:41;3.40;;;1.80;;
4786;SDS011;62338;48.832;9.422;2023-02-21T05:56:44;4.40;;;1.50;;
4786;SDS011;62338;48.832;9.422;2023-02-21T05:58:47;5.97;;;3.20;;
4786;SDS011;62338;48.832;9.422;2023-02-21T06:00:50;3.60;;;1.20;;
4786;SDS011;62338;48.832;9.422;2023-02-21T06:02:53;3.03;;;1.40;;
4786;SDS011;62338;48.832;9.422;2023-02-21T06:04:55;4.10;;;1.73;;
4786;SDS011;62338;48.832;9.422;2023-02-21T06:06:57;6.47;;;1.90;;
4786;SDS011;62338;48.832;9.422;2023-02-21T06:08:59;3.30;;;1.33;;
4786;SDS011;62338;48.832;9.422;2023-02-21T06:11:01;3.53;;;1.40;;
4786;SDS011;62338;48.832;9.422;2023-02-21T06:13:03;6.30;;;1.60;;
4786;SDS011;62338;48.832;9.422;2023-02-21T06:15:04;5.60;;;1.60;;
4786;SDS011;62338;48.832;9.422;2023-02-21T06:17:07;7.00;;;1.63;;
4786;SDS011;62338;48.832;9.422;2023-02-21T06:19:10;3.53;;;1.40;;
4786;SDS011;62338;48.832;9.422;2023-02-21T06:21:13;5.73;;;2.17;;
4786;SDS011;62338;48.832;9.422;2023-02-21T06:23:15;3.97;;;1.43;;
4786;SDS011;62338;48.832;9.422;2023-02-21T06:25:17;4.00;;;1.63;;
4786;SDS011;62338;48.832;9.422;2023-02-21T06:27:19;5.13;;;2.60;;
4786;SDS011;62338;48.832;9.422;2023-02-21T06:29:21;15.07;;;1.77;;
4786;SDS011;62338;48.832;9.422;2023-02-21T06:31:23;3.93;;;2.10;;
4786;SDS011;62338;48.832;9.422;2023-02-21T06:33:25;4.50;;;2.20;;
4786;SDS011;62338;48.832;9.422;2023-02-21T06:35:27;7.30;;;1.80;;
4786;SDS011;62338;48.832;9.422;2023-02-21T06:37:29;5.63;;;1.47;;
4786;SDS011;62338;48.832;9.422;2023-02-21T06:39:31;6.77;;;1.73;;
4786;SDS011;62338;48.832;9.422;2023-02-21T06:41:32;6.93;;;1.87;;
4786;SDS011;62338;48.832;9.422;2023-02-21T06:43:34;5.90;;;1.70;;
4786;SDS011;62338;48.832;9.422;2023-02-21T06:45:39;3.53;;;1.60;;
4786;SDS011;62338;48.832;9.422;2023-02-21T06:47:41;6.03;;;2.00;;
4786;SDS011;62338;48.832;9.422;2023-02-21T06:49:43;4.20;;;1.50;;
4786;SDS011;62338;48.832;9.422;2023-02-21T06:51:45;3.40;;;1.23;;
4786;SDS011;62338;48.832;9.422;2023-02-21T06:53:50;3.97;;;1.20;;
4786;SDS011;62338;48.832;9.422;2023-02-21T06:55:51;2.53;;;1.00;;
4786;SDS011;62338;48.832;9.422;2023-02-21T06:57:53;7.00;;;1.43;;
4786;SDS011;62338;48.832;9.422;2023-02-21T06:59:55;3.77;;;1.30;;
4786;SDS011;62338;48.832;9.422;2023-02-21T07:01:57;3.00;;;1.30;;
4786;SDS011;62338;48.832;9.422;2023-02-21T07:03:58;13.87;;;3.50;;
4786;SDS011;62338;48.832;9.422;2023-02-21T07:06:00;5.90;;;1.97;;
4786;SDS011;62338;48.832;9.422;2023-02-21T07:08:02;2.63;;;1.20;;
4786;SDS011;62338;48.832;9.422;2023-02-21T07:10:04;3.10;;;1.30;;
4786;SDS011;62338;48.832;9.422;2023-02-21T07:12:06;3.33;;;1.37;;
4786;SDS011;62338;48.832;9.422;2023-02-21T07:14:11;5.20;;;1.57;;
4786;SDS011;62338;48.832;9.422;2023-02-21T07:16:13;5.13;;;1.47;;
4786;SDS011;62338;48.832;9.422;2023-02-21T07:18:18;3.90;;;1.30;;
4786;SDS011;62338;48.832;9.422;2023-02-21T07:20:20;5.43;;;1.30;;
4786;SDS011;62338;48.832;9.422;2023-02-21T07:22:21;6.80;;;1.90;;
4786;SDS011;62338;48.832;9.422;2023-02-21T07:24:26;4.87;;;1.53;;
4786;SDS011;62338;48.832;9.422;2023-02-21T07:26:28;7.73;;;2.00;;
4786;SDS011;62338;48.832;9.422;2023-02-21T07:28:30;3.93;;;1.40;;
4786;SDS011;62338;48.832;9.422;2023-02-21T07:30:32;4.63;;;1.70;;
4786;SDS011;62338;48.832;9.422;2023-02-21T07:32:34;4.70;;;1.57;;
4786;SDS011;62338;48.832;9.422;2023-02-21T07:34:36;3.50;;;1.70;;
4786;SDS011;62338;48.832;9.422;2023-02-21T07:36:38;5.87;;;1.83;;
4786;SDS011;62338;48.832;9.422;2023-02-21T07:38:40;5.23;;;1.73;;
4786;SDS011;62338;48.832;9.422;2023-02-21T07:40:42;4.60;;;1.60;;
4786;SDS011;62338;48.832;9.422;2023-02-21T07:42:43;9.03;;;2.20;;
4786;SDS011;62338;48.832;9.422;2023-02-21T07:44:46;4.47;;;1.80;;
4786;SDS011;62338;48.832;9.422;2023-02-21T07:46:49;4.20;;;2.00;;
4786;SDS011;62338;48.832;9.422;2023-02-21T07:48:50;4.97;;;2.00;;
4786;SDS011;62338;48.832;9.422;2023-02-21T07:50:52;4.23;;;1.73;;
4786;SDS011;62338;48.832;9.422;2023-02-21T07:52:54;5.73;;;1.87;;
4786;SDS011;62338;48.832;9.422;2023-02-21T07:54:56;3.67;;;1.73;;
4786;SDS011;62338;48.832;9.422;2023-02-21T07:56:58;5.40;;;1.83;;
4786;SDS011;62338;48.832;9.422;2023-02-21T07:59:00;4.40;;;2.10;;
4786;SDS011;62338;48.832;9.422;2023-02-21T08:01:02;5.67;;;2.00;;
4786;SDS011;62338;48.832;9.422;2023-02-21T08:03:05;5.03;;;1.87;;
4786;SDS011;62338;48.832;9.422;2023-02-21T08:05:07;10.67;;;1.90;;
4786;SDS011;62338;48.832;9.422;2023-02-21T08:07:09;7.47;;;2.03;;
4786;SDS011;62338;48.832;9.422;2023-02-21T08:09:12;5.97;;;2.17;;
4786;SDS011;62338;48.832;9.422;2023-02-21T08:11:13;4.80;;;2.00;;
4786;SDS011;62338;48.832;9.422;2023-02-21T08:13:15;4.67;;;2.07;;
4786;SDS011;62338;48.832;9.422;2023-02-21T08:15:17;5.50;;;2.17;;
4786;SDS011;62338;48.832;9.422;2023-02-21T08:17:19;4.90;;;2.20;;
4786;SDS011;62338;48.832;9.422;2023-02-21T08:19:21;4.13;;;1.90;;
4786;SDS011;62338;48.832;9.422;2023-02-21T08:21:23;4.50;;;2.00;;
4786;SDS011;62338;48.832;9.422;2023-02-21T08:23:25;10.30;;;2.70;;
4786;SDS011;62338;48.832;9.422;2023-02-21T08:25:27;4.23;;;2.00;;
4786;SDS011;62338;48.832;9.422;2023-02-21T08:27:28;5.70;;;1.93;;
4786;SDS011;62338;48.832;9.422;2023-02-21T08:29:30;5.53;;;2.10;;
4786;SDS011;62338;48.832;9.422;2023-02-21T08:31:36;6.90;;;2.30;;
4786;SDS011;62338;48.832;9.422;2023-02-21T08:33:41;5.00;;;2.07;;
4786;SDS011;62338;48.832;9.422;2023-02-21T08:35:44;3.80;;;1.90;;
4786;SDS011;62338;48.832;9.422;2023-02-21T08:37:46;4.37;;;1.97;;
4786;SDS011;62338;48.832;9.422;2023-02-21T08:39:50;5.47;;;2.00;;
4786;SDS011;62338;48.832;9.422;2023-02-21T08:41:52;7.00;;;2.63;;
4786;SDS011;62338;48.832;9.422;2023-02-21T08:43:54;5.93;;;2.30;;
4786;SDS011;62338;48.832;9.422;2023-02-21T08:45:56;5.50;;;2.60;;
4786;SDS011;62338;48.832;9.422;2023-02-21T08:47:57;5.00;;;2.07;;
4786;SDS011;62338;48.832;9.422;2023-02-21T08:49:59;4.90;;;2.43;;
4786;SDS011;62338;48.832;9.422;2023-02-21T08:52:01;5.80;;;2.40;;
4786;SDS011;62338;48.832;9.422;2023-02-21T08:54:03;6.20;;;2.30;;
4786;SDS011;62338;48.832;9.422;2023-02-21T08:56:05;5.50;;;2.57;;
4786;SDS011;62338;48.832;9.422;2023-02-21T08:58:08;5.90;;;2.23;;
4786;SDS011;62338;48.832;9.422;2023-02-21T09:00:12;4.37;;;1.93;;
4786;SDS011;62338;48.832;9.422;2023-02-21T09:02:24;5.50;;;2.10;;
4786;SDS011;62338;48.832;9.422;2023-02-21T09:04:25;5.37;;;2.43;;
4786;SDS011;62338;48.832;9.422;2023-02-21T09:06:30;6.17;;;2.37;;
4786;SDS011;62338;48.832;9.422;2023-02-21T09:08:33;5.23;;;2.50;;
4786;SDS011;62338;48.832;9.422;2023-02-21T09:10:36;5.40;;;2.77;;
4786;SDS011;62338;48.832;9.422;2023-02-21T09:12:38;6.20;;;2.47;;
4786;SDS011;62338;48.832;9.422;2023-02-21T09:14:40;7.97;;;2.63;;
4786;SDS011;62338;48.832;9.422;2023-02-21T09:16:43;7.20;;;2.80;;
4786;SDS011;62338;48.832;9.422;2023-02-21T09:18:58;7.17;;;3.83;;
4786;SDS011;62338;48.832;9.422;2023-02-21T09:21:01;6.23;;;3.07;;
4786;SDS011;62338;48.832;9.422;2023-02-21T09:23:03;7.40;;;3.30;;
4786;SDS011;62338;48.832;9.422;2023-02-21T09:25:05;8.50;;;3.67;;
4786;SDS011;62338;48.832;9.422;2023-02-21T09:27:07;10.63;;;3.60;;
4786;SDS011;62338;48.832;9.422;2023-02-21T09:29:09;8.70;;;3.70;;
4786;SDS011;62338;48.832;9.422;2023-02-21T09:31:12;8.80;;;3.30;;
4786;SDS011;62338;48.832;9.422;2023-02-21T09:33:14;6.20;;;3.47;;
4786;SDS011;62338;48.832;9.422;2023-02-21T09:35:16;6.60;;;3.13;;
4786;SDS011;62338;48.832;9.422;2023-02-21T09:37:18;6.17;;;2.93;;
4786;SDS011;62338;48.832;9.422;2023-02-21T09:39:21;9.30;;;2.93;;
4786;SDS011;62338;48.832;9.422;2023-02-21T09:41:24;7.90;;;3.53;;
4786;SDS011;62338;48.832;9.422;2023-02-21T09:43:33;6.27;;;2.80;;
4786;SDS011;62338;48.832;9.422;2023-02-21T09:45:37;6.47;;;2.77;;
4786;SDS011;62338;48.832;9.422;2023-02-21T09:47:39;8.07;;;3.03;;
4786;SDS011;62338;48.832;9.422;2023-02-21T09:49:41;11.73;;;3.37;;
4786;SDS011;62338;48.832;9.422;2023-02-21T09:51:45;5.10;;;2.53;;
4786;SDS011;62338;48.832;9.422;2023-02-21T09:53:49;8.47;;;3.60;;
4786;SDS011;62338;48.832;9.422;2023-02-21T09:55:56;8.33;;;2.70;;
4786;SDS011;62338;48.832;9.422;2023-02-21T09:58:09;6.37;;;3.57;;
4786;SDS011;62338;48.832;9.422;2023-02-21T10:00:17;5.70;;;3.23;;
4786;SDS011;62338;48.832;9.422;2023-02-21T10:09:47;8.97;;;2.80;;
4786;SDS011;62338;48.832;9.422;2023-02-21T10:12:13;5.80;;;2.60;;
4786;SDS011;62338;48.832;9.422;2023-02-21T10:14:49;8.30;;;3.00;;
4786;SDS011;62338;48.832;9.422;2023-02-21T10:19:35;5.10;;;2.60;;
4786;SDS011;62338;48.832;9.422;2023-02-21T10:21:41;6.30;;;2.23;;
4786;SDS011;62338;48.832;9.422;2023-02-21T10:23:47;4.57;;;1.90;;
4786;SDS011;62338;48.832;9.422;2023-02-21T10:25:50;5.20;;;2.23;;
4786;SDS011;62338;48.832;9.422;2023-02-21T10:27:58;8.07;;;2.23;;
4786;SDS011;62338;48.832;9.422;2023-02-21T10:30:02;5.73;;;2.37;;
4786;SDS011;62338;48.832;9.422;2023-02-21T10:32:07;6.90;;;2.03;;
4786;SDS011;62338;48.832;9.422;2023-02-21T10:34:15;5.27;;;2.00;;
4786;SDS011;62338;48.832;9.422;2023-02-21T10:36:26;6.00;;;2.73;;
4786;SDS011;62338;48.832;9.422;2023-02-21T10:38:28;4.67;;;2.70;;
4786;SDS011;62338;48.832;9.422;2023-02-21T10:40:41;6.30;;;2.73;;
4786;SDS011;62338;48.832;9.422;2023-02-21T10:42:47;5.37;;;2.50;;
4786;SDS011;62338;48.832;9.422;2023-02-21T10:44:54;11.23;;;3.27;;
4786;SDS011;62338;48.832;9.422;2023-02-21T10:46:59;5.63;;;2.70;;
4786;SDS011;62338;48.832;9.422;2023-02-21T10:49:15;8.43;;;2.77;;
4786;SDS011;62338;48.832;9.422;2023-02-21T10:51:36;6.50;;;2.63;;
4786;SDS011;62338;48.832;9.422;2023-02-21T10:53:38;3.50;;;1.70;;
4786;SDS011;62338;48.832;9.422;2023-02-21T10:55:45;5.40;;;2.30;;
4786;SDS011;62338;48.832;9.422;2023-02-21T10:58:16;5.53;;;2.50;;
4786;SDS011;62338;48.832;9.422;2023-02-21T11:00:31;4.50;;;2.20;;
4786;SDS011;62338;48.832;9.422;2023-02-21T11:02:38;4.30;;;1.60;;
4786;SDS011;62338;48.832;9.422;2023-02-21T11:04:44;6.47;;;2.07;;
4786;SDS011;62338;48.832;9.422;2023-02-21T11:06:48;3.37;;;1.20;;
4786;SDS011;62338;48.832;9.422;2023-02-21T11:08:54;4.83;;;1.23;;
4786;SDS011;62338;48.832;9.422;2023-02-21T11:10:57;4.13;;;1.50;;
4786;SDS011;62338;48.832;9.422;2023-02-21T11:13:06;4.33;;;1.70;;
4786;SDS011;62338;48.832;9.422;2023-02-21T11:15:20;3.90;;;1.80;;
4786;SDS011;62338;48.832;9.422;2023-02-21T11:17:22;4.83;;;1.93;;
4786;SDS011;62338;48.832;9.422;2023-02-21T11:19:25;5.73;;;1.40;;
4786;SDS011;62338;48.832;9.422;2023-02-21T11:21:27;4.13;;;1.40;;
4786;SDS011;62338;48.832;9.422;2023-02-21T11:23:29;7.10;;;2.37;;
4786;SDS011;62338;48.832;9.422;2023-02-21T11:25:32;5.50;;;1.93;;
4786;SDS011;62338;48.832;9.422;2023-02-21T11:27:40;5.53;;;1.63;;
4786;SDS011;62338;48.832;9.422;2023-02-21T11:29:42;5.67;;;1.53;;
4786;SDS011;62338;48.832;9.422;2023-02-21T11:31:47;5.13;;;1.57;;
4786;SDS011;62338;48.832;9.422;2023-02-21T11:33:59;3.67;;;1.60;;
4786;SDS011;62338;48.832;9.422;2023-02-21T11:36:11;3.50;;;1.83;;
4786;SDS011;62338;48.832;9.422;2023-02-21T11:41:03;3.53;;;1.57;;
4786;SDS011;62338;48.832;9.422;2023-02-21T11:43:29;4.37;;;1.30;;
4786;SDS011;62338;48.832;9.422;2023-02-21T11:45:32;4.83;;;1.40;;
4786;SDS011;62338;48.832;9.422;2023-02-21T11:47:37;3.50;;;1.20;;
4786;SDS011;62338;48.832;9.422;2023-02-21T11:52:11;3.57;;;1.33;;
4786;SDS011;62338;48.832;9.422;2023-02-21T11:54:25;5.80;;;1.60;;
4786;SDS011;62338;48.832;9.422;2023-02-21T12:01:00;3.47;;;1.67;;
4786;SDS011;62338;48.832;9.422;2023-02-21T12:05:55;3.60;;;1.57;;
4786;SDS011;62338;48.832;9.422;2023-02-21T12:13:39;2.80;;;1.10;;
4786;SDS011;62338;48.832;9.422;2023-02-21T12:15:25;4.83;;;1.23;;
4786;SDS011;62338;48.832;9.422;2023-02-21T12:17:39;3.67;;;1.53;;
4786;SDS011;62338;48.832;9.422;2023-02-21T12:20:00;4.30;;;1.67;;
4786;SDS011;62338;48.832;9.422;2023-02-21T12:28:49;5.77;;;2.00;;
4786;SDS011;62338;48.832;9.422;2023-02-21T12:35:43;4.63;;;1.60;;
4786;SDS011;62338;48.832;9.422;2023-02-21T12:38:24;8.80;;;2.30;;
4786;SDS011;62338;48.832;9.422;2023-02-21T12:46:14;4.07;;;2.00;;
4786;SDS011;62338;48.832;9.422;2023-02-21T12:48:31;5.50;;;1.73;;
4786;SDS011;62338;48.832;9.422;2023-02-21T12:50:46;3.70;;;1.70;;
4786;SDS011;62338;48.832;9.422;2023-02-21T12:53:03;4.70;;;2.13;;
4786;SDS011;62338;48.832;9.422;2023-02-21T12:55:15;5.33;;;1.90;;
4786;SDS011;62338;48.832;9.422;2023-02-21T12:57:26;5.10;;;1.93;;
4786;SDS011;62338;48.832;9.422;2023-02-21T12:59:44;5.43;;;2.07;;
4786;SDS011;62338;48.832;9.422;2023-02-21T13:01:52;3.87;;;1.53;;
4786;SDS011;62338;48.832;9.422;2023-02-21T13:06:48;5.63;;;1.93;;
4786;SDS011;62338;48.832;9.422;2023-02-21T13:11:09;4.00;;;1.93;;
4786;SDS011;62338;48.832;9.422;2023-02-21T13:13:18;6.80;;;2.20;;
4786;SDS011;62338;48.832;9.422;2023-02-21T13:15:27;5.10;;;2.03;;
4786;SDS011;62338;48.832;9.422;2023-02-21T13:17:30;3.87;;;1.70;;
4786;SDS011;62338;48.832;9.422;2023-02-21T13:19:35;5.17;;;1.80;;
4786;SDS011;62338;48.832;9.422;2023-02-21T13:24:57;4.33;;;1.43;;
4786;SDS011;62338;48.832;9.422;2023-02-21T13:27:22;5.30;;;1.60;;
4786;SDS011;62338;48.832;9.422;2023-02-21T13:29:40;4.73;;;1.37;;
4786;SDS011;62338;48.832;9.422;2023-02-21T13:31:43;4.70;;;1.60;;
4786;SDS011;62338;48.832;9.422;2023-02-21T13:33:50;3.90;;;1.57;;
4786;SDS011;62338;48.832;9.422;2023-02-21T13:35:57;4.57;;;1.57;;
4786;SDS011;62338;48.832;9.422;2023-02-21T13:38:00;4.03;;;1.50;;
4786;SDS011;62338;48.832;9.422;2023-02-21T13:40:15;5.03;;;1.57;;
4786;SDS011;62338;48.832;9.422;2023-02-21T13:42:24;3.70;;;1.33;;
4786;SDS011;62338;48.832;9.422;2023-02-21T13:44:32;4.07;;;1.60;;
4786;SDS011;62338;48.832;9.422;2023-02-21T13:48:36;4.43;;;1.57;;
4786;SDS011;62338;48.832;9.422;2023-02-21T13:52:50;4.60;;;1.70;;
4786;SDS011;62338;48.832;9.422;2023-02-21T13:57:28;3.77;;;1.50;;
4786;SDS011;62338;48.832;9.422;2023-02-21T13:59:35;4.63;;;1.50;;
4786;SDS011;62338;48.832;9.422;2023-02-21T14:03:38;3.30;;;1.33;;
4786;SDS011;62338;48.832;9.422;2023-02-21T14:09:56;3.70;;;1.40;;
4786;SDS011;62338;48.832;9.422;2023-02-21T14:11:58;3.30;;;1.20;;
4786;SDS011;62338;48.832;9.422;2023-02-21T14:14:17;3.73;;;1.50;;
4786;SDS011;62338;48.832;9.422;2023-02-21T14:16:33;3.47;;;1.50;;
4786;SDS011;62338;48.832;9.422;2023-02-21T14:21:01;2.90;;;1.00;;
4786;SDS011;62338;48.832;9.422;2023-02-21T14:23:38;3.45;;;1.27;;
4786;SDS011;62338;48.832;9.422;2023-02-21T14:25:52;3.17;;;1.20;;
4786;SDS011;62338;48.832;9.422;2023-02-21T14:28:00;2.90;;;1.00;;
4786;SDS011;62338;48.832;9.422;2023-02-21T14:34:12;9.73;;;1.60;;
4786;SDS011;62338;48.832;9.422;2023-02-21T14:36:17;3.20;;;1.40;;
4786;SDS011;62338;48.832;9.422;2023-02-21T14:38:22;4.57;;;1.33;;
4786;SDS011;62338;48.832;9.422;2023-02-21T14:42:42;3.43;;;1.27;;
4786;SDS011;62338;48.832;9.422;2023-02-21T14:45:01;3.83;;;1.27;;
4786;SDS011;62338;48.832;9.422;2023-02-21T14:47:16;3.10;;;1.27;;
4786;SDS011;62338;48.832;9.422;2023-02-21T14:51:57;3.70;;;1.47;;
4786;SDS011;62338;48.832;9.422;2023-02-21T15:06:20;3.13;;;1.23;;